sensor_id;sensor_type;location;lat;lon;timestamp;P1;durP1;ratioP1;P2;durP2;ratioP2
43803;SDS011;29430;52.924;-2.388;2024-03-23T00:57:56;6.32;;;0.20;;
43803;SDS011;29430;52.924;-2.388;2024-03-23T01:02:47;3.70;;;0.20;;
43803;SDS011;29430;52.924;-2.388;2024-03-23T01:07:38;2.45;;;0.30;;
43803;SDS011;29430;52.924;-2.388;2024-03-23T01:12:28;3.90;;;0.22;;
43803;SDS011;29430;52.924;-2.388;2024-03-23T01:17:19;7.90;;;0.30;;
43803;SDS011;29430;52.924;-2.388;2024-03-23T01:22:10;4.82;;;0.30;;
43803;SDS011;29430;52.924;-2.388;2024-03-23T01:27:00;3.03;;;0.65;;
43803;SDS011;29430;52.924;-2.388;2024-03-23T01:31:51;6.07;;;0.50;;
43803;SDS011;29430;52.924;-2.388;2024-03-23T01:36:42;3.50;;;0.20;;
43803;SDS011;29430;52.924;-2.388;2024-03-23T01:41:32;8.95;;;0.30;;
43803;SDS011;29430;52.924;-2.388;2024-03-23T01:46:23;2.35;;;0.30;;
43803;SDS011;29430;52.924;-2.388;2024-03-23T01:51:14;1.98;;;0.15;;
43803;SDS011;29430;52.924;-2.388;2024-03-23T01:56:05;3.40;;;0.22;;
43803;SDS011;29430;52.924;-2.388;2024-03-23T02:00:57;5.45;;;0.40;;
43803;SDS011;29430;52.924;-2.388;2024-03-23T02:05:48;4.50;;;0.30;;
43803;SDS011;29430;52.924;-2.388;2024-03-23T02:10:39;4.10;;;0.30;;
43803;SDS011;29430;52.924;-2.388;2024-03-23T02:15:29;6.90;;;0.50;;
43803;SDS011;29430;52.924;-2.388;2024-03-23T02:20:20;2.67;;;0.20;;
43803;SDS011;29430;52.924;-2.388;2024-03-23T02:25:10;6.35;;;0.30;;
43803;SDS011;29430;52.924;-2.388;2024-03-23T02:30:01;5.13;;;0.20;;
43803;SDS011;29430;52.924;-2.388;2024-03-23T02:34:52;6.63;;;0.35;;
43803;SDS011;29430;52.924;-2.388;2024-03-23T02:39:43;5.20;;;0.25;;
43803;SDS011;29430;52.924;-2.388;2024-03-23T02:44:33;2.75;;;0.20;;
43803;SDS011;29430;52.924;-2.388;2024-03-23T02:49:25;8.30;;;0.32;;
43803;SDS011;29430;52.924;-2.388;2024-03-23T02:54:15;6.28;;;0.40;;
43803;SDS011;29430;52.924;-2.388;2024-03-23T02:59:06;6.53;;;0.35;;
43803;SDS011;29430;52.924;-2.388;2024-03-23T03:03:57;5.80;;;0.45;;
43803;SDS011;29430;52.924;-2.388;2024-03-23T03:08:47;5.15;;;0.35;;
43803;SDS011;29430;52.924;-2.388;2024-03-23T03:13:38;4.68;;;0.35;;
43803;SDS011;29430;52.924;-2.388;2024-03-23T03:18:29;4.32;;;0.30;;
43803;SDS011;29430;52.924;-2.388;2024-03-23T03:23:20;6.35;;;0.40;;
43803;SDS011;29430;52.924;-2.388;2024-03-23T03:28:10;5.90;;;0.20;;
43803;SDS011;29430;52.924;-2.388;2024-03-23T03:33:01;1.38;;;0.20;;
43803;SDS011;29430;52.924;-2.388;2024-03-23T03:37:52;3.10;;;0.20;;
43803;SDS011;29430;52.924;-2.388;2024-03-23T03:42:42;2.92;;;0.15;;
43803;SDS011;29430;52.924;-2.388;2024-03-23T03:47:33;5.78;;;0.30;;
43803;SDS011;29430;52.924;-2.388;2024-03-23T03:52:23;4.53;;;0.40;;
43803;SDS011;29430;52.924;-2.388;2024-03-23T03:57:14;6.72;;;0.73;;
43803;SDS011;29430;52.924;-2.388;2024-03-23T04:02:05;7.53;;;0.30;;
43803;SDS011;29430;52.924;-2.388;2024-03-23T04:07:01;5.97;;;0.35;;
43803;SDS011;29430;52.924;-2.388;2024-03-23T04:11:53;5.40;;;0.63;;
43803;SDS011;29430;52.924;-2.388;2024-03-23T04:16:43;3.53;;;0.30;;
43803;SDS011;29430;52.924;-2.388;2024-03-23T04:21:35;3.38;;;0.60;;
43803;SDS011;29430;52.924;-2.388;2024-03-23T04:26:26;8.00;;;0.52;;
43803;SDS011;29430;52.924;-2.388;2024-03-23T04:31:17;10.68;;;0.70;;
43803;SDS011;29430;52.924;-2.388;2024-03-23T04:36:07;6.93;;;0.20;;
43803;SDS011;29430;52.924;-2.388;2024-03-23T04:40:59;7.10;;;0.73;;
43803;SDS011;29430;52.924;-2.388;2024-03-23T04:45:49;7.30;;;0.38;;
43803;SDS011;29430;52.924;-2.388;2024-03-23T04:50:40;5.95;;;0.30;;
43803;SDS011;29430;52.924;-2.388;2024-03-23T04:55:31;6.03;;;0.30;;
43803;SDS011;29430;52.924;-2.388;2024-03-23T05:00:22;3.72;;;0.20;;
43803;SDS011;29430;52.924;-2.388;2024-03-23T05:05:13;3.80;;;0.25;;
43803;SDS011;29430;52.924;-2.388;2024-03-23T05:10:04;8.25;;;0.20;;
43803;SDS011;29430;52.924;-2.388;2024-03-23T05:14:55;5.20;;;0.20;;
43803;SDS011;29430;52.924;-2.388;2024-03-23T05:19:46;1.90;;;0.20;;
43803;SDS011;29430;52.924;-2.388;2024-03-23T05:24:36;3.72;;;0.20;;
43803;SDS011;29430;52.924;-2.388;2024-03-23T05:29:27;8.43;;;0.40;;
43803;SDS011;29430;52.924;-2.388;2024-03-23T05:34:19;2.45;;;0.30;;
43803;SDS011;29430;52.924;-2.388;2024-03-23T05:39:10;5.00;;;0.50;;
43803;SDS011;29430;52.924;-2.388;2024-03-23T05:44:00;4.25;;;0.40;;
43803;SDS011;29430;52.924;-2.388;2024-03-23T05:48:51;2.35;;;0.20;;
43803;SDS011;29430;52.924;-2.388;2024-03-23T05:53:42;4.10;;;0.28;;
43803;SDS011;29430;52.924;-2.388;2024-03-23T05:58:33;2.15;;;0.20;;
43803;SDS011;29430;52.924;-2.388;2024-03-23T06:03:23;5.15;;;0.20;;
43803;SDS011;29430;52.924;-2.388;2024-03-23T06:08:14;2.38;;;0.10;;
43803;SDS011;29430;52.924;-2.388;2024-03-23T06:13:05;5.63;;;0.20;;
43803;SDS011;29430;52.924;-2.388;2024-03-23T06:17:56;7.28;;;0.82;;
43803;SDS011;29430;52.924;-2.388;2024-03-23T06:22:46;2.25;;;0.20;;
43803;SDS011;29430;52.924;-2.388;2024-03-23T06:27:37;2.00;;;0.10;;
43803;SDS011;29430;52.924;-2.388;2024-03-23T06:32:29;5.63;;;0.30;;
43803;SDS011;29430;52.924;-2.388;2024-03-23T06:37:19;2.05;;;0.20;;
43803;SDS011;29430;52.924;-2.388;2024-03-23T06:42:10;3.08;;;0.57;;
43803;SDS011;29430;52.924;-2.388;2024-03-23T06:47:01;3.45;;;0.20;;
43803;SDS011;29430;52.924;-2.388;2024-03-23T06:51:53;4.03;;;0.20;;
43803;SDS011;29430;52.924;-2.388;2024-03-23T06:56:46;4.05;;;0.20;;
43803;SDS011;29430;52.924;-2.388;2024-03-23T07:01:37;3.10;;;0.43;;
43803;SDS011;29430;52.924;-2.388;2024-03-23T07:06:28;8.18;;;0.20;;
43803;SDS011;29430;52.924;-2.388;2024-03-23T07:11:19;4.00;;;0.30;;
43803;SDS011;29430;52.924;-2.388;2024-03-23T07:16:10;5.75;;;0.50;;
43803;SDS011;29430;52.924;-2.388;2024-03-23T07:21:01;7.15;;;0.28;;
43803;SDS011;29430;52.924;-2.388;2024-03-23T07:26:01;3.65;;;0.50;;
43803;SDS011;29430;52.924;-2.388;2024-03-23T07:35:54;4.78;;;0.40;;
43803;SDS011;29430;52.924;-2.388;2024-03-23T07:40:45;5.63;;;0.30;;
43803;SDS011;29430;52.924;-2.388;2024-03-23T07:45:35;3.60;;;0.32;;
43803;SDS011;29430;52.924;-2.388;2024-03-23T07:50:28;5.65;;;0.40;;
43803;SDS011;29430;52.924;-2.388;2024-03-23T07:55:18;5.10;;;0.38;;
43803;SDS011;29430;52.924;-2.388;2024-03-23T08:00:09;7.63;;;0.93;;
43803;SDS011;29430;52.924;-2.388;2024-03-23T08:05:00;6.18;;;0.30;;
43803;SDS011;29430;52.924;-2.388;2024-03-23T08:09:50;5.07;;;0.38;;
43803;SDS011;29430;52.924;-2.388;2024-03-23T08:14:41;7.18;;;0.38;;
43803;SDS011;29430;52.924;-2.388;2024-03-23T08:19:32;4.47;;;0.30;;
43803;SDS011;29430;52.924;-2.388;2024-03-23T08:24:22;10.48;;;1.42;;
43803;SDS011;29430;52.924;-2.388;2024-03-23T08:29:13;6.55;;;0.25;;
43803;SDS011;29430;52.924;-2.388;2024-03-23T08:34:04;5.05;;;0.25;;
43803;SDS011;29430;52.924;-2.388;2024-03-23T08:38:54;3.83;;;0.32;;
43803;SDS011;29430;52.924;-2.388;2024-03-23T08:43:45;3.83;;;0.30;;
43803;SDS011;29430;52.924;-2.388;2024-03-23T08:48:37;7.63;;;0.60;;
43803;SDS011;29430;52.924;-2.388;2024-03-23T08:53:29;4.68;;;0.30;;
43803;SDS011;29430;52.924;-2.388;2024-03-23T08:58:20;5.65;;;0.43;;
43803;SDS011;29430;52.924;-2.388;2024-03-23T09:03:11;3.33;;;0.30;;
43803;SDS011;29430;52.924;-2.388;2024-03-23T09:08:01;5.00;;;0.30;;
43803;SDS011;29430;52.924;-2.388;2024-03-23T09:12:52;5.85;;;0.30;;
43803;SDS011;29430;52.924;-2.388;2024-03-23T09:17:43;8.73;;;0.40;;
43803;SDS011;29430;52.924;-2.388;2024-03-23T09:22:33;2.78;;;0.32;;
43803;SDS011;29430;52.924;-2.388;2024-03-23T09:27:25;6.55;;;0.30;;
43803;SDS011;29430;52.924;-2.388;2024-03-23T09:32:16;4.07;;;0.30;;
43803;SDS011;29430;52.924;-2.388;2024-03-23T09:37:07;6.50;;;0.47;;
43803;SDS011;29430;52.924;-2.388;2024-03-23T09:41:57;7.72;;;0.40;;
43803;SDS011;29430;52.924;-2.388;2024-03-23T09:46:48;4.57;;;0.20;;
43803;SDS011;29430;52.924;-2.388;2024-03-23T09:51:39;2.28;;;0.20;;
43803;SDS011;29430;52.924;-2.388;2024-03-23T09:56:29;2.88;;;0.28;;
43803;SDS011;29430;52.924;-2.388;2024-03-23T10:01:20;4.70;;;0.20;;
43803;SDS011;29430;52.924;-2.388;2024-03-23T10:06:11;2.15;;;0.20;;
43803;SDS011;29430;52.924;-2.388;2024-03-23T10:11:14;6.00;;;0.40;;
43803;SDS011;29430;52.924;-2.388;2024-03-23T10:16:06;5.18;;;0.10;;
43803;SDS011;29430;52.924;-2.388;2024-03-23T10:21:07;1.98;;;0.20;;
43803;SDS011;29430;52.924;-2.388;2024-03-23T10:31:08;2.85;;;0.10;;
43803;SDS011;29430;52.924;-2.388;2024-03-23T10:36:02;4.28;;;0.30;;
43803;SDS011;29430;52.924;-2.388;2024-03-23T10:40:57;3.58;;;0.30;;
43803;SDS011;29430;52.924;-2.388;2024-03-23T10:45:50;5.45;;;0.22;;
43803;SDS011;29430;52.924;-2.388;2024-03-23T10:50:40;5.10;;;0.20;;
43803;SDS011;29430;52.924;-2.388;2024-03-23T10:55:31;3.17;;;0.20;;
43803;SDS011;29430;52.924;-2.388;2024-03-23T11:00:24;1.90;;;0.20;;
43803;SDS011;29430;52.924;-2.388;2024-03-23T11:05:28;1.15;;;0.20;;
43803;SDS011;29430;52.924;-2.388;2024-03-23T11:10:30;2.90;;;0.20;;
43803;SDS011;29430;52.924;-2.388;2024-03-23T11:15:22;1.42;;;0.20;;
43803;SDS011;29430;52.924;-2.388;2024-03-23T11:20:13;2.40;;;0.40;;
43803;SDS011;29430;52.924;-2.388;2024-03-23T11:25:11;2.05;;;0.10;;
43803;SDS011;29430;52.924;-2.388;2024-03-23T11:35:02;1.75;;;0.10;;
43803;SDS011;29430;52.924;-2.388;2024-03-23T11:39:53;3.10;;;0.10;;
43803;SDS011;29430;52.924;-2.388;2024-03-23T11:44:43;2.67;;;0.20;;
43803;SDS011;29430;52.924;-2.388;2024-03-23T11:49:34;4.07;;;0.20;;
43803;SDS011;29430;52.924;-2.388;2024-03-23T11:54:31;1.67;;;0.20;;
43803;SDS011;29430;52.924;-2.388;2024-03-23T11:59:31;2.35;;;0.20;;
43803;SDS011;29430;52.924;-2.388;2024-03-23T12:04:26;2.67;;;0.85;;
43803;SDS011;29430;52.924;-2.388;2024-03-23T12:09:20;2.77;;;0.20;;
43803;SDS011;29430;52.924;-2.388;2024-03-23T12:14:10;3.40;;;0.17;;
43803;SDS011;29430;52.924;-2.388;2024-03-23T12:19:05;4.30;;;0.17;;
43803;SDS011;29430;52.924;-2.388;2024-03-23T12:23:56;1.25;;;0.10;;
43803;SDS011;29430;52.924;-2.388;2024-03-23T12:28:46;2.17;;;0.10;;
43803;SDS011;29430;52.924;-2.388;2024-03-23T12:33:37;2.38;;;0.10;;
43803;SDS011;29430;52.924;-2.388;2024-03-23T12:38:28;2.80;;;0.20;;
43803;SDS011;29430;52.924;-2.388;2024-03-23T12:43:18;3.22;;;0.40;;
43803;SDS011;29430;52.924;-2.388;2024-03-23T12:48:09;3.17;;;0.20;;
43803;SDS011;29430;52.924;-2.388;2024-03-23T12:53:00;2.90;;;0.22;;
43803;SDS011;29430;52.924;-2.388;2024-03-23T12:57:50;0.40;;;0.10;;
43803;SDS011;29430;52.924;-2.388;2024-03-23T13:02:41;1.10;;;0.17;;
43803;SDS011;29430;52.924;-2.388;2024-03-23T13:07:32;1.83;;;0.20;;
43803;SDS011;29430;52.924;-2.388;2024-03-23T13:12:23;5.32;;;0.20;;
43803;SDS011;29430;52.924;-2.388;2024-03-23T13:17:14;4.20;;;0.15;;
43803;SDS011;29430;52.924;-2.388;2024-03-23T13:22:05;4.47;;;0.30;;
43803;SDS011;29430;52.924;-2.388;2024-03-23T13:26:56;2.78;;;0.13;;
43803;SDS011;29430;52.924;-2.388;2024-03-23T13:31:47;2.83;;;0.20;;
43803;SDS011;29430;52.924;-2.388;2024-03-23T13:36:39;5.10;;;0.30;;
43803;SDS011;29430;52.924;-2.388;2024-03-23T13:41:29;3.08;;;0.20;;
43803;SDS011;29430;52.924;-2.388;2024-03-23T13:46:20;6.07;;;0.25;;
43803;SDS011;29430;52.924;-2.388;2024-03-23T13:51:11;2.78;;;0.20;;
43803;SDS011;29430;52.924;-2.388;2024-03-23T13:56:03;2.42;;;0.20;;
43803;SDS011;29430;52.924;-2.388;2024-03-23T14:00:56;3.40;;;0.30;;
43803;SDS011;29430;52.924;-2.388;2024-03-23T14:05:47;3.33;;;0.50;;
43803;SDS011;29430;52.924;-2.388;2024-03-23T14:10:41;4.20;;;0.35;;
43803;SDS011;29430;52.924;-2.388;2024-03-23T14:15:33;2.78;;;0.20;;
43803;SDS011;29430;52.924;-2.388;2024-03-23T14:20:24;3.78;;;0.25;;
43803;SDS011;29430;52.924;-2.388;2024-03-23T14:25:15;8.45;;;0.40;;
43803;SDS011;29430;52.924;-2.388;2024-03-23T14:30:06;1.35;;;0.20;;
43803;SDS011;29430;52.924;-2.388;2024-03-23T14:34:58;1.67;;;0.20;;
43803;SDS011;29430;52.924;-2.388;2024-03-23T14:39:49;6.65;;;0.40;;
43803;SDS011;29430;52.924;-2.388;2024-03-23T14:44:40;7.00;;;0.30;;
43803;SDS011;29430;52.924;-2.388;2024-03-23T14:49:32;3.72;;;0.35;;
43803;SDS011;29430;52.924;-2.388;2024-03-23T14:54:23;3.38;;;0.30;;
43803;SDS011;29430;52.924;-2.388;2024-03-23T14:59:14;2.40;;;0.20;;
43803;SDS011;29430;52.924;-2.388;2024-03-23T15:04:05;2.78;;;0.40;;
43803;SDS011;29430;52.924;-2.388;2024-03-23T15:08:56;5.88;;;0.47;;
43803;SDS011;29430;52.924;-2.388;2024-03-23T15:13:46;6.88;;;0.30;;
43803;SDS011;29430;52.924;-2.388;2024-03-23T15:18:40;3.40;;;0.22;;
43803;SDS011;29430;52.924;-2.388;2024-03-23T15:23:30;5.07;;;0.65;;
43803;SDS011;29430;52.924;-2.388;2024-03-23T15:28:21;3.45;;;0.30;;
43803;SDS011;29430;52.924;-2.388;2024-03-23T15:33:13;2.05;;;0.20;;
43803;SDS011;29430;52.924;-2.388;2024-03-23T15:38:04;2.83;;;0.30;;
43803;SDS011;29430;52.924;-2.388;2024-03-23T15:42:55;6.68;;;0.43;;
43803;SDS011;29430;52.924;-2.388;2024-03-23T15:47:46;3.00;;;0.38;;
43803;SDS011;29430;52.924;-2.388;2024-03-23T15:52:36;7.00;;;0.30;;
43803;SDS011;29430;52.924;-2.388;2024-03-23T15:57:27;5.88;;;0.50;;
43803;SDS011;29430;52.924;-2.388;2024-03-23T16:02:18;4.55;;;0.40;;
43803;SDS011;29430;52.924;-2.388;2024-03-23T16:07:08;5.57;;;0.55;;
43803;SDS011;29430;52.924;-2.388;2024-03-23T16:11:59;6.78;;;0.85;;
43803;SDS011;29430;52.924;-2.388;2024-03-23T16:16:50;7.85;;;0.43;;
43803;SDS011;29430;52.924;-2.388;2024-03-23T16:21:41;4.25;;;0.40;;
43803;SDS011;29430;52.924;-2.388;2024-03-23T16:26:31;5.68;;;0.40;;
43803;SDS011;29430;52.924;-2.388;2024-03-23T16:31:22;6.30;;;0.60;;
43803;SDS011;29430;52.924;-2.388;2024-03-23T16:36:13;6.25;;;0.47;;
43803;SDS011;29430;52.924;-2.388;2024-03-23T16:41:04;6.72;;;0.88;;
43803;SDS011;29430;52.924;-2.388;2024-03-23T16:46:00;6.50;;;0.50;;
43803;SDS011;29430;52.924;-2.388;2024-03-23T16:50:56;5.77;;;0.40;;
43803;SDS011;29430;52.924;-2.388;2024-03-23T16:55:55;7.50;;;0.60;;
43803;SDS011;29430;52.924;-2.388;2024-03-23T17:00:49;5.78;;;0.45;;
43803;SDS011;29430;52.924;-2.388;2024-03-23T17:05:40;9.55;;;0.85;;
43803;SDS011;29430;52.924;-2.388;2024-03-23T17:10:33;7.32;;;0.57;;
43803;SDS011;29430;52.924;-2.388;2024-03-23T17:15:23;8.10;;;0.52;;
43803;SDS011;29430;52.924;-2.388;2024-03-23T17:20:14;6.35;;;0.80;;
43803;SDS011;29430;52.924;-2.388;2024-03-23T17:25:05;6.88;;;1.10;;
43803;SDS011;29430;52.924;-2.388;2024-03-23T17:29:56;14.20;;;1.13;;
43803;SDS011;29430;52.924;-2.388;2024-03-23T17:34:47;6.78;;;0.85;;
43803;SDS011;29430;52.924;-2.388;2024-03-23T17:39:37;7.95;;;1.27;;
43803;SDS011;29430;52.924;-2.388;2024-03-23T17:44:28;11.40;;;0.90;;
43803;SDS011;29430;52.924;-2.388;2024-03-23T17:49:19;8.15;;;0.82;;
43803;SDS011;29430;52.924;-2.388;2024-03-23T17:54:09;14.05;;;0.90;;
43803;SDS011;29430;52.924;-2.388;2024-03-23T17:59:02;8.02;;;0.95;;
43803;SDS011;29430;52.924;-2.388;2024-03-23T18:03:53;8.18;;;0.95;;
43803;SDS011;29430;52.924;-2.388;2024-03-23T18:08:44;8.68;;;0.77;;
43803;SDS011;29430;52.924;-2.388;2024-03-23T18:13:34;7.68;;;0.60;;
43803;SDS011;29430;52.924;-2.388;2024-03-23T18:18:25;9.70;;;0.82;;
43803;SDS011;29430;52.924;-2.388;2024-03-23T18:23:16;8.32;;;1.05;;
43803;SDS011;29430;52.924;-2.388;2024-03-23T18:28:08;7.47;;;0.70;;
43803;SDS011;29430;52.924;-2.388;2024-03-23T18:32:58;6.70;;;0.80;;
43803;SDS011;29430;52.924;-2.388;2024-03-23T18:37:49;13.25;;;1.05;;
43803;SDS011;29430;52.924;-2.388;2024-03-23T18:42:43;7.60;;;0.80;;
43803;SDS011;29430;52.924;-2.388;2024-03-23T18:47:35;8.30;;;1.35;;
43803;SDS011;29430;52.924;-2.388;2024-03-23T18:52:28;11.55;;;1.20;;
43803;SDS011;29430;52.924;-2.388;2024-03-23T18:57:19;11.38;;;0.98;;
43803;SDS011;29430;52.924;-2.388;2024-03-23T19:02:10;8.70;;;0.63;;
43803;SDS011;29430;52.924;-2.388;2024-03-23T19:07:00;4.40;;;0.70;;
43803;SDS011;29430;52.924;-2.388;2024-03-23T19:11:51;7.68;;;1.00;;
43803;SDS011;29430;52.924;-2.388;2024-03-23T19:16:42;10.75;;;1.00;;
43803;SDS011;29430;52.924;-2.388;2024-03-23T19:21:32;9.25;;;1.77;;
43803;SDS011;29430;52.924;-2.388;2024-03-23T19:26:23;11.70;;;1.00;;
43803;SDS011;29430;52.924;-2.388;2024-03-23T19:31:14;9.82;;;1.77;;
43803;SDS011;29430;52.924;-2.388;2024-03-23T19:36:06;11.27;;;2.13;;
43803;SDS011;29430;52.924;-2.388;2024-03-23T19:40:57;8.00;;;1.55;;
43803;SDS011;29430;52.924;-2.388;2024-03-23T19:45:49;8.13;;;1.23;;
43803;SDS011;29430;52.924;-2.388;2024-03-23T19:50:40;8.15;;;1.40;;
43803;SDS011;29430;52.924;-2.388;2024-03-23T19:55:31;7.63;;;1.35;;
43803;SDS011;29430;52.924;-2.388;2024-03-23T20:00:22;8.25;;;1.13;;
43803;SDS011;29430;52.924;-2.388;2024-03-23T20:05:13;7.43;;;1.30;;
43803;SDS011;29430;52.924;-2.388;2024-03-23T20:10:04;7.07;;;1.30;;
43803;SDS011;29430;52.924;-2.388;2024-03-23T20:14:55;7.35;;;1.05;;
43803;SDS011;29430;52.924;-2.388;2024-03-23T20:19:46;9.73;;;1.40;;
43803;SDS011;29430;52.924;-2.388;2024-03-23T20:24:37;11.20;;;1.10;;
43803;SDS011;29430;52.924;-2.388;2024-03-23T20:29:28;7.53;;;1.17;;
43803;SDS011;29430;52.924;-2.388;2024-03-23T20:34:19;7.47;;;1.55;;
43803;SDS011;29430;52.924;-2.388;2024-03-23T20:39:11;10.55;;;1.13;;
43803;SDS011;29430;52.924;-2.388;2024-03-23T20:44:01;10.68;;;1.13;;
43803;SDS011;29430;52.924;-2.388;2024-03-23T20:48:52;5.55;;;1.05;;
43803;SDS011;29430;52.924;-2.388;2024-03-23T20:53:43;9.20;;;1.20;;
43803;SDS011;29430;52.924;-2.388;2024-03-23T20:58:34;7.55;;;1.20;;
43803;SDS011;29430;52.924;-2.388;2024-03-23T21:03:26;12.25;;;1.17;;
43803;SDS011;29430;52.924;-2.388;2024-03-23T21:08:17;8.73;;;1.10;;
43803;SDS011;29430;52.924;-2.388;2024-03-23T21:13:08;8.73;;;1.23;;
43803;SDS011;29430;52.924;-2.388;2024-03-23T21:18:00;9.48;;;1.52;;
43803;SDS011;29430;52.924;-2.388;2024-03-23T21:22:51;9.13;;;1.10;;
43803;SDS011;29430;52.924;-2.388;2024-03-23T21:27:42;5.90;;;1.10;;
43803;SDS011;29430;52.924;-2.388;2024-03-23T21:32:33;9.15;;;1.27;;
43803;SDS011;29430;52.924;-2.388;2024-03-23T21:37:23;9.05;;;1.40;;
43803;SDS011;29430;52.924;-2.388;2024-03-23T21:42:14;9.70;;;1.00;;
43803;SDS011;29430;52.924;-2.388;2024-03-23T21:47:05;9.77;;;1.38;;
43803;SDS011;29430;52.924;-2.388;2024-03-23T21:51:56;7.40;;;1.75;;
43803;SDS011;29430;52.924;-2.388;2024-03-23T21:56:50;8.98;;;1.00;;
43803;SDS011;29430;52.924;-2.388;2024-03-23T22:01:40;3.88;;;0.73;;
43803;SDS011;29430;52.924;-2.388;2024-03-23T22:06:31;4.40;;;0.77;;
43803;SDS011;29430;52.924;-2.388;2024-03-23T22:11:22;7.40;;;1.10;;
43803;SDS011;29430;52.924;-2.388;2024-03-23T22:16:13;9.20;;;2.55;;
43803;SDS011;29430;52.924;-2.388;2024-03-23T22:21:03;6.93;;;0.90;;
43803;SDS011;29430;52.924;-2.388;2024-03-23T22:25:54;6.82;;;0.73;;
43803;SDS011;29430;52.924;-2.388;2024-03-23T22:30:55;8.45;;;1.10;;
43803;SDS011;29430;52.924;-2.388;2024-03-23T22:35:46;10.73;;;1.00;;
43803;SDS011;29430;52.924;-2.388;2024-03-23T22:40:37;9.15;;;1.83;;
43803;SDS011;29430;52.924;-2.388;2024-03-23T22:45:28;5.78;;;1.00;;
43803;SDS011;29430;52.924;-2.388;2024-03-23T22:50:18;9.63;;;0.98;;
43803;SDS011;29430;52.924;-2.388;2024-03-23T22:55:09;7.55;;;1.45;;
43803;SDS011;29430;52.924;-2.388;2024-03-23T22:59:59;8.45;;;1.27;;
43803;SDS011;29430;52.924;-2.388;2024-03-23T23:04:50;6.25;;;1.23;;
43803;SDS011;29430;52.924;-2.388;2024-03-23T23:09:41;7.07;;;1.00;;
43803;SDS011;29430;52.924;-2.388;2024-03-23T23:14:31;8.35;;;0.73;;
43803;SDS011;29430;52.924;-2.388;2024-03-23T23:19:22;11.32;;;1.20;;
43803;SDS011;29430;52.924;-2.388;2024-03-23T23:24:13;5.75;;;1.08;;
43803;SDS011;29430;52.924;-2.388;2024-03-23T23:29:03;7.15;;;0.90;;
43803;SDS011;29430;52.924;-2.388;2024-03-23T23:33:54;4.43;;;1.00;;
43803;SDS011;29430;52.924;-2.388;2024-03-23T23:38:47;7.07;;;1.17;;
43803;SDS011;29430;52.924;-2.388;2024-03-23T23:43:39;13.35;;;1.33;;
43803;SDS011;29430;52.924;-2.388;2024-03-23T23:48:30;7.38;;;0.93;;
43803;SDS011;29430;52.924;-2.388;2024-03-23T23:53:20;6.38;;;1.23;;
43803;SDS011;29430;52.924;-2.388;2024-03-23T23:58:11;12.55;;;1.10;;
